createdAt,value
2023-01-17T00:02:02.796Z,14.20
2023-01-17T00:05:24.252Z,14.20
2023-01-17T00:08:55.531Z,14.10
2023-01-17T00:11:59.294Z,14.10
2023-01-17T00:15:01.621Z,14.10
2023-01-17T00:18:03.798Z,14.10
2023-01-17T00:21:24.604Z,14.20
2023-01-17T00:24:45.155Z,14.20
2023-01-17T00:27:47.322Z,14.30
2023-01-17T00:30:49.510Z,14.30
2023-01-17T00:33:51.676Z,14.20
2023-01-17T00:36:53.985Z,14.30
2023-01-17T00:39:56.304Z,14.30
2023-01-17T00:43:16.979Z,14.30
2023-01-17T00:46:37.832Z,14.30
2023-01-17T00:49:58.627Z,14.30
2023-01-17T00:53:23.517Z,14.20
2023-01-17T00:56:44.140Z,14.20
2023-01-17T01:00:04.906Z,14.20
2023-01-17T01:03:30.332Z,14.20
2023-01-17T01:06:50.831Z,14.30
2023-01-17T01:10:11.603Z,14.30
2023-01-17T01:13:36.437Z,14.30
2023-01-17T01:16:57.158Z,14.40
2023-01-17T01:20:28.605Z,14.40
2023-01-17T01:23:49.197Z,14.40
2023-01-17T01:27:09.945Z,14.40
2023-01-17T01:30:30.488Z,14.50
2023-01-17T01:33:32.524Z,14.50
2023-01-17T01:36:34.716Z,14.50
2023-01-17T01:39:36.885Z,14.60
2023-01-17T01:42:51.961Z,14.60
2023-01-17T01:45:57.359Z,14.60
2023-01-17T01:49:20.876Z,14.60
2023-01-17T01:52:25.874Z,14.60
2023-01-17T01:55:36.101Z,14.60
2023-01-17T01:58:40.085Z,14.60
2023-01-17T02:01:42.289Z,14.50
2023-01-17T02:04:45.432Z,14.50
2023-01-17T02:07:58.960Z,14.50
2023-01-17T02:11:01.289Z,14.50
2023-01-17T02:14:05.234Z,14.50
2023-01-17T02:17:39.705Z,14.40
2023-01-17T02:20:58.700Z,14.50
2023-01-17T02:24:00.826Z,14.50
2023-01-17T02:27:37.599Z,14.50
2023-01-17T02:30:54.690Z,14.50
2023-01-17T02:34:07.291Z,14.50
2023-01-17T02:37:18.816Z,14.50
2023-01-17T02:40:28.490Z,14.60
2023-01-17T02:43:31.449Z,14.60
2023-01-17T02:46:33.615Z,14.60
2023-01-17T02:49:35.750Z,14.60
2023-01-17T02:53:14.933Z,14.60
2023-01-17T03:18:26.274Z,14.60
2023-01-17T03:21:28.975Z,14.60
2023-01-17T03:24:31.086Z,14.60
2023-01-17T03:27:33.274Z,14.60
2023-01-17T03:30:35.426Z,14.60
2023-01-17T03:33:37.454Z,14.50
2023-01-17T03:36:39.566Z,14.50
2023-01-17T03:39:41.662Z,14.50
2023-01-17T03:42:43.843Z,14.50
2023-01-17T03:45:50.077Z,14.60
2023-01-17T03:48:53.029Z,14.60
2023-01-17T03:51:55.243Z,14.60
2023-01-17T03:54:58.871Z,14.60
2023-01-17T03:58:00.940Z,14.50
2023-01-17T04:01:03.230Z,14.50
2023-01-17T04:04:06.494Z,14.50
2023-01-17T04:07:08.868Z,14.50
2023-01-17T04:10:11.267Z,14.50
2023-01-17T04:13:13.945Z,14.50
2023-01-17T04:16:18.546Z,14.50
2023-01-17T04:19:20.981Z,14.50
2023-01-17T04:22:23.057Z,14.50
2023-01-17T04:25:25.910Z,14.50
2023-01-17T04:28:28.055Z,14.50
2023-01-17T04:31:30.152Z,14.50
2023-01-17T04:34:32.247Z,14.50
2023-01-17T04:37:34.283Z,14.60
2023-01-17T04:40:36.531Z,14.60
2023-01-17T04:43:38.642Z,14.60
2023-01-17T04:46:40.873Z,14.60
2023-01-17T04:49:44.173Z,14.60
2023-01-17T04:52:46.369Z,14.60
2023-01-17T04:55:48.458Z,14.70
2023-01-17T04:58:50.587Z,14.60
2023-01-17T05:01:52.728Z,14.60
2023-01-17T05:04:54.872Z,14.60
2023-01-17T05:07:58.068Z,14.60
2023-01-17T05:11:00.084Z,14.60
2023-01-17T05:14:02.368Z,14.60
2023-01-17T05:17:04.776Z,14.70
2023-01-17T05:20:08.673Z,14.60
2023-01-17T05:23:11.387Z,14.60
2023-01-17T05:26:13.595Z,14.60
2023-01-17T05:29:15.674Z,14.70
2023-01-17T05:32:18.613Z,14.70
2023-01-17T05:35:24.046Z,14.70
2023-01-17T05:38:26.397Z,14.70
2023-01-17T05:41:28.795Z,14.60
2023-01-17T05:44:30.888Z,14.60
2023-01-17T05:47:32.903Z,14.60
2023-01-17T05:50:38.313Z,14.60
2023-01-17T05:53:40.467Z,14.60
2023-01-17T05:56:42.706Z,14.60
2023-01-17T05:59:44.934Z,14.60
2023-01-17T06:02:47.566Z,14.60
2023-01-17T06:05:50.264Z,14.60
2023-01-17T06:08:52.535Z,14.60
2023-01-17T06:11:54.691Z,14.70
2023-01-17T06:14:56.789Z,14.70
2023-01-17T06:18:07.035Z,14.70
2023-01-17T06:21:09.158Z,14.70
2023-01-17T06:24:11.564Z,14.60
2023-01-17T06:27:13.674Z,14.60
2023-01-17T06:30:15.975Z,14.60
2023-01-17T06:33:18.533Z,14.60
2023-01-17T06:36:21.041Z,14.60
2023-01-17T06:39:23.436Z,14.70
2023-01-17T06:42:25.459Z,14.70
2023-01-17T06:45:29.822Z,14.80
2023-01-17T06:48:31.894Z,14.80
2023-01-17T06:51:34.031Z,14.80
2023-01-17T06:54:37.055Z,14.80
2023-01-17T06:57:39.172Z,14.80
2023-01-17T07:00:41.375Z,14.70
2023-01-17T07:03:43.468Z,14.60
2023-01-17T07:06:45.544Z,14.50
2023-01-17T07:09:47.642Z,14.50
2023-01-17T07:12:49.780Z,14.50
2023-01-17T07:15:53.243Z,14.50
2023-01-17T07:18:57.099Z,14.50
2023-01-17T07:21:59.316Z,14.50
2023-01-17T07:25:01.431Z,14.50
2023-01-17T07:28:03.727Z,14.40
2023-01-17T07:31:08.104Z,14.40
2023-01-17T07:34:10.575Z,14.40
2023-01-17T07:37:15.118Z,14.40
2023-01-17T07:40:20.196Z,14.30
2023-01-17T07:43:22.271Z,14.30
2023-01-17T07:46:24.448Z,14.20
2023-01-17T07:49:26.705Z,14.20
2023-01-17T07:52:29.106Z,14.20
2023-01-17T07:55:31.338Z,14.10
2023-01-17T07:58:34.600Z,13.90
2023-01-17T08:01:37.075Z,13.90
2023-01-17T08:04:41.887Z,13.80
2023-01-17T08:07:44.015Z,13.70
2023-01-17T08:10:46.184Z,13.70
2023-01-17T08:13:48.857Z,13.70
2023-01-17T08:16:51.382Z,13.70
2023-01-17T08:19:53.542Z,13.80
2023-01-17T08:22:56.822Z,13.90
2023-01-17T08:26:02.123Z,14.00
2023-01-17T08:29:04.359Z,14.20
2023-01-17T08:32:06.988Z,14.40
2023-01-17T08:35:09.639Z,14.60
2023-01-17T08:38:12.909Z,14.60
2023-01-17T08:41:15.273Z,14.70
2023-01-17T08:44:20.087Z,14.90
2023-01-17T08:47:22.379Z,15.80
2023-01-17T08:50:26.282Z,16.90
2023-01-17T08:53:28.521Z,17.70
2023-01-17T08:56:30.636Z,18.30
2023-01-17T08:59:32.753Z,19.10
2023-01-17T09:02:34.836Z,19.20
2023-01-17T09:05:36.953Z,19.10
2023-01-17T09:08:41.616Z,19.00
2023-01-17T09:11:43.763Z,19.50
2023-01-17T09:14:46.477Z,20.80
2023-01-17T09:17:48.617Z,22.00
2023-01-17T09:20:55.029Z,22.20
2023-01-17T09:23:57.500Z,21.20
2023-01-17T09:27:00.389Z,20.60
2023-01-17T09:30:02.802Z,19.90
2023-01-17T09:33:04.929Z,19.20
2023-01-17T09:36:08.458Z,19.00
2023-01-17T09:39:11.907Z,19.40
2023-01-17T09:42:43.715Z,19.90
2023-01-17T09:45:46.013Z,19.50
2023-01-17T09:48:56.392Z,20.10
2023-01-17T09:51:58.999Z,21.30
2023-01-17T09:55:01.567Z,22.10
2023-01-17T09:58:40.665Z,21.80
2023-01-17T10:01:48.587Z,20.40
2023-01-17T10:05:27.713Z,19.50
2023-01-17T10:08:49.087Z,18.90
2023-01-17T10:11:54.313Z,18.20
2023-01-17T10:15:33.307Z,17.70
2023-01-17T10:18:48.550Z,17.60
2023-01-17T10:22:30.603Z,18.90
2023-01-17T10:25:50.773Z,21.20
2023-01-17T10:28:56.319Z,23.40
2023-01-17T10:32:02.559Z,24.20
2023-01-17T10:35:17.552Z,24.60
2023-01-17T10:38:23.057Z,25.60
2023-01-17T10:41:36.994Z,25.80
2023-01-17T10:44:56.320Z,25.60
2023-01-17T10:48:33.842Z,26.20
2023-01-17T10:51:44.023Z,26.70
2023-01-17T10:55:09.681Z,26.30
2023-01-17T10:58:13.485Z,25.30
2023-01-17T11:01:21.262Z,24.00
2023-01-17T11:04:36.633Z,23.30
2023-01-17T11:07:56.536Z,24.40
2023-01-17T11:11:04.504Z,25.70
2023-01-17T11:14:17.435Z,27.20
2023-01-17T11:17:20.420Z,28.00
2023-01-17T11:20:24.430Z,28.30
2023-01-17T11:23:31.969Z,28.60
2023-01-17T11:26:36.056Z,27.50
2023-01-17T11:29:40.492Z,26.60
2023-01-17T11:32:55.605Z,27.50
2023-01-17T11:35:57.720Z,27.20
2023-01-17T11:39:03.018Z,27.00
2023-01-17T11:42:26.766Z,27.70
2023-01-17T11:45:32.927Z,28.60
2023-01-17T11:48:40.534Z,28.90
2023-01-17T11:51:44.146Z,27.30
2023-01-17T11:54:48.145Z,26.40
2023-01-17T11:57:51.160Z,24.90
2023-01-17T12:01:27.205Z,23.20
2023-01-17T12:04:42.851Z,21.40
2023-01-17T12:08:17.687Z,21.00
2023-01-17T12:12:00.915Z,20.50
2023-01-17T12:15:03.022Z,20.50
2023-01-17T12:18:49.936Z,20.10
2023-01-17T12:22:10.606Z,19.70
2023-01-17T12:25:15.722Z,19.20
2023-01-17T12:28:42.442Z,18.60
2023-01-17T12:31:57.881Z,18.10
2023-01-17T12:35:24.342Z,18.00
2023-01-17T12:38:38.786Z,18.00
2023-01-17T12:42:09.098Z,17.70
2023-01-17T12:45:27.627Z,17.70
2023-01-17T12:48:36.053Z,17.70
2023-01-17T12:51:41.719Z,17.90
2023-01-17T12:54:50.295Z,18.10
2023-01-17T12:57:58.499Z,18.20
2023-01-17T13:01:05.670Z,18.10
2023-01-17T13:04:17.591Z,17.60
2023-01-17T13:07:34.704Z,17.40
2023-01-17T13:10:52.229Z,17.20
2023-01-17T13:13:57.583Z,16.50
2023-01-17T13:17:05.045Z,16.20
2023-01-17T13:20:28.887Z,16.00
2023-01-17T13:23:59.915Z,15.80
2023-01-17T13:27:07.901Z,16.10
2023-01-17T13:30:29.686Z,16.30
2023-01-17T13:34:09.375Z,16.30
2023-01-17T13:37:49.016Z,16.50
2023-01-17T13:41:03.904Z,16.40
2023-01-17T13:44:24.749Z,16.50
2023-01-17T13:47:27.703Z,16.40
2023-01-17T13:50:39.050Z,15.90
2023-01-17T13:53:41.249Z,15.70
2023-01-17T13:56:43.401Z,15.40
2023-01-17T13:59:45.509Z,15.40
2023-01-17T14:02:52.917Z,15.60
2023-01-17T14:05:57.539Z,15.70
2023-01-17T14:09:08.610Z,16.00
2023-01-17T14:12:16.359Z,16.20
2023-01-17T14:15:29.988Z,16.30
2023-01-17T14:18:42.877Z,16.40
2023-01-17T14:21:45.866Z,16.50
2023-01-17T14:25:05.512Z,16.70
2023-01-17T14:28:29.366Z,16.90
2023-01-17T14:31:31.584Z,16.80
2023-01-17T14:34:34.864Z,16.80
2023-01-17T14:37:50.859Z,16.30
2023-01-17T14:41:04.493Z,15.90
2023-01-17T14:44:07.049Z,15.80
2023-01-17T14:47:14.209Z,15.90
2023-01-17T14:50:19.341Z,15.80
2023-01-17T14:53:28.757Z,15.70
2023-01-17T14:56:31.887Z,15.50
2023-01-17T14:59:34.230Z,15.40
2023-01-17T15:02:44.328Z,15.60
2023-01-17T15:05:50.044Z,15.70
2023-01-17T15:08:55.776Z,15.90
2023-01-17T15:11:59.769Z,16.20
2023-01-17T15:15:02.142Z,16.40
2023-01-17T15:18:30.192Z,16.40
2023-01-17T15:21:40.807Z,16.20
2023-01-17T15:24:44.791Z,16.10
2023-01-17T15:27:47.867Z,15.90
2023-01-17T15:31:23.835Z,15.80
2023-01-17T15:34:26.100Z,15.80
2023-01-17T15:37:32.865Z,15.90
2023-01-17T15:40:43.744Z,15.70
2023-01-17T15:43:46.015Z,15.70
2023-01-17T15:46:48.547Z,15.80
2023-01-17T15:49:52.236Z,15.60
2023-01-17T15:52:59.159Z,15.50
2023-01-17T15:56:19.934Z,15.40
2023-01-17T15:59:45.693Z,15.40
2023-01-17T16:02:55.995Z,15.30
2023-01-17T16:06:00.843Z,15.10
2023-01-17T16:09:04.881Z,15.00
2023-01-17T16:12:07.235Z,15.00
2023-01-17T16:15:12.714Z,15.10
2023-01-17T16:18:26.122Z,15.00
2023-01-17T16:21:31.075Z,14.90
2023-01-17T16:24:33.133Z,14.70
2023-01-17T16:27:35.221Z,14.70
2023-01-17T16:30:38.974Z,14.60
2023-01-17T16:33:43.562Z,14.60
2023-01-17T16:36:45.898Z,14.50
2023-01-17T16:39:53.993Z,14.40
2023-01-17T16:42:57.003Z,14.40
2023-01-17T16:45:59.506Z,14.50
2023-01-17T16:49:01.701Z,14.50
2023-01-17T16:52:03.987Z,14.60
2023-01-17T16:55:09.352Z,14.60
2023-01-17T16:58:11.741Z,14.70
2023-01-17T17:01:16.291Z,14.60
2023-01-17T17:04:18.515Z,14.50
2023-01-17T17:07:20.672Z,14.30
2023-01-17T17:10:25.275Z,14.20
2023-01-17T17:13:28.455Z,13.90
2023-01-17T17:16:31.191Z,13.70
2023-01-17T17:19:33.854Z,13.60
2023-01-17T17:22:35.879Z,13.50
2023-01-17T17:25:38.570Z,13.50
2023-01-17T17:28:40.584Z,13.50
2023-01-17T17:31:43.125Z,13.50
2023-01-17T17:34:45.929Z,13.60
2023-01-17T17:37:48.032Z,13.50
2023-01-17T17:40:50.239Z,13.50
2023-01-17T17:43:53.067Z,13.50
2023-01-17T17:46:55.572Z,13.60
2023-01-17T17:49:57.669Z,13.60
2023-01-17T17:52:59.783Z,13.60
2023-01-17T17:56:06.781Z,13.60
2023-01-17T17:59:09.876Z,13.60
2023-01-17T18:02:12.126Z,13.50
2023-01-17T18:05:14.336Z,13.50
2023-01-17T18:08:17.336Z,13.20
2023-01-17T18:11:26.924Z,13.10
2023-01-17T18:14:28.955Z,13.10
2023-01-17T18:17:31.016Z,13.00
2023-01-17T18:20:33.156Z,13.00
2023-01-17T18:23:36.875Z,13.00
2023-01-17T18:26:44.512Z,12.80
2023-01-17T18:29:46.597Z,12.80
2023-01-17T18:32:50.084Z,12.70
2023-01-17T18:35:56.822Z,12.80
2023-01-17T18:39:00.113Z,12.70
2023-01-17T18:42:02.314Z,12.70
2023-01-17T18:45:04.784Z,12.60
2023-01-17T18:48:07.085Z,12.60
2023-01-17T18:51:17.298Z,12.70
2023-01-17T18:54:20.142Z,12.70
2023-01-17T18:57:24.250Z,12.70
2023-01-17T19:00:26.710Z,12.60
2023-01-17T19:03:29.994Z,12.50
2023-01-17T19:06:38.601Z,12.30
2023-01-17T19:09:41.597Z,12.30
2023-01-17T19:12:44.605Z,12.20
2023-01-17T19:15:46.784Z,12.10
2023-01-17T19:18:49.935Z,12.10
2023-01-17T19:21:52.575Z,12.00
2023-01-17T19:24:55.019Z,12.00
2023-01-17T19:27:58.500Z,12.00
2023-01-17T19:31:06.818Z,12.00
2023-01-17T19:34:10.821Z,12.00
2023-01-17T19:37:13.255Z,12.00
2023-01-17T19:40:17.116Z,12.10
2023-01-17T19:43:20.940Z,12.00
2023-01-17T19:46:26.181Z,12.10
2023-01-17T19:49:28.307Z,12.00
2023-01-17T19:52:31.403Z,12.00
2023-01-17T19:55:33.444Z,11.90
2023-01-17T19:58:36.019Z,11.90
2023-01-17T20:01:38.367Z,11.80
2023-01-17T20:04:40.604Z,11.80
2023-01-17T20:07:48.653Z,11.70
2023-01-17T20:10:50.693Z,11.70
2023-01-17T20:13:57.816Z,11.70
2023-01-17T20:16:59.978Z,11.70
2023-01-17T20:20:02.075Z,11.70
2023-01-17T20:23:05.840Z,11.70
2023-01-17T20:26:09.287Z,11.80
2023-01-17T20:29:16.866Z,11.90
2023-01-17T20:32:18.946Z,11.90
2023-01-17T20:35:21.042Z,12.00
2023-01-17T20:38:27.456Z,11.90
2023-01-17T20:41:32.723Z,12.00
2023-01-17T20:44:37.627Z,12.00
2023-01-17T20:47:39.667Z,12.00
2023-01-17T20:50:41.745Z,12.10
2023-01-17T20:53:45.996Z,12.10
2023-01-17T20:56:48.168Z,12.10
2023-01-17T20:59:50.276Z,12.10
2023-01-17T21:02:52.408Z,12.10
2023-01-17T21:06:02.617Z,12.20
2023-01-17T21:09:07.271Z,12.30
2023-01-17T21:12:09.360Z,12.10
2023-01-17T21:15:11.724Z,12.00
2023-01-17T21:18:14.957Z,12.00
2023-01-17T21:21:21.938Z,11.80
2023-01-17T21:24:24.440Z,11.70
2023-01-17T21:27:26.505Z,11.60
2023-01-17T21:30:29.217Z,11.50
2023-01-17T21:33:31.325Z,11.50
2023-01-17T21:36:37.848Z,11.50
2023-01-17T21:39:40.069Z,11.60
2023-01-17T21:42:42.183Z,11.60
2023-01-17T21:45:44.250Z,11.60
2023-01-17T21:48:46.437Z,11.50
2023-01-17T21:51:54.184Z,11.50
2023-01-17T21:55:14.953Z,11.40
2023-01-17T21:58:36.072Z,11.40
2023-01-17T22:01:38.257Z,11.50
2023-01-17T22:04:40.325Z,11.50
2023-01-17T22:08:05.303Z,11.50
2023-01-17T22:11:11.112Z,11.50
2023-01-17T22:14:14.216Z,11.60
2023-01-17T22:17:18.405Z,11.50
2023-01-17T22:20:21.687Z,11.50
2023-01-17T22:23:23.824Z,11.50
2023-01-17T22:26:28.545Z,11.40
2023-01-17T22:29:32.501Z,11.40
2023-01-17T22:32:35.297Z,11.40
2023-01-17T22:35:37.336Z,11.30
2023-01-17T22:38:43.006Z,11.30
2023-01-17T22:41:45.257Z,11.30
2023-01-17T22:44:47.932Z,11.30
2023-01-17T22:47:50.262Z,11.40
2023-01-17T22:50:57.525Z,11.30
2023-01-17T22:54:00.963Z,11.20
2023-01-17T22:57:04.142Z,11.20
2023-01-17T23:00:14.636Z,11.10
2023-01-17T23:03:16.996Z,11.10
2023-01-17T23:06:25.838Z,11.20
2023-01-17T23:09:29.089Z,11.20
2023-01-17T23:12:31.315Z,11.20
2023-01-17T23:15:56.243Z,11.20
2023-01-17T23:19:16.906Z,11.20
2023-01-17T23:22:21.520Z,11.10
2023-01-17T23:25:23.632Z,11.10
2023-01-17T23:28:28.027Z,11.00
2023-01-17T23:31:30.262Z,11.00
2023-01-17T23:34:32.464Z,11.10
2023-01-17T23:37:53.337Z,11.10
2023-01-17T23:41:25.903Z,11.10
2023-01-17T23:44:31.937Z,11.10
2023-01-17T23:47:34.104Z,11.00
2023-01-17T23:50:44.575Z,11.00
2023-01-17T23:53:46.858Z,11.00
2023-01-17T23:56:49.326Z,10.90
2023-01-17T23:59:51.428Z,10.90
